createdAt,value
2022-10-18T00:02:37.896Z,10.73
2022-10-18T00:05:25.000Z,10.75
2022-10-18T00:08:12.043Z,10.10
2022-10-18T00:11:00.565Z,11.77
2022-10-18T00:13:47.904Z,10.30
2022-10-18T00:16:34.852Z,10.27
2022-10-18T00:19:25.855Z,9.75
2022-10-18T00:22:15.707Z,9.60
2022-10-18T00:25:02.892Z,8.43
2022-10-18T00:27:53.082Z,9.80
2022-10-18T00:30:40.215Z,10.18
2022-10-18T00:33:27.181Z,9.55
2022-10-18T00:36:14.898Z,10.45
2022-10-18T00:41:49.647Z,10.65
2022-10-18T00:47:27.057Z,11.80
2022-10-18T00:50:14.300Z,10.48
2022-10-18T00:53:03.140Z,10.95
2022-10-18T00:55:50.364Z,10.10
2022-10-18T00:58:37.765Z,10.88
2022-10-18T01:01:27.596Z,10.95
2022-10-18T01:04:17.593Z,10.65
2022-10-18T01:07:09.183Z,10.93
2022-10-18T01:10:01.410Z,10.70
2022-10-18T01:12:52.233Z,11.43
2022-10-18T01:15:42.948Z,11.98
2022-10-18T01:18:34.333Z,12.13
2022-10-18T01:21:34.207Z,12.05
2022-10-18T01:24:39.340Z,12.10
2022-10-18T01:27:33.345Z,10.85
2022-10-18T01:30:34.120Z,12.05
2022-10-18T01:33:24.710Z,12.98
2022-10-18T01:36:16.575Z,13.02
2022-10-18T01:39:05.889Z,14.48
2022-10-18T01:41:53.382Z,13.07
2022-10-18T01:44:41.255Z,12.57
2022-10-18T01:50:17.005Z,12.27
2022-10-18T01:53:04.321Z,12.27
2022-10-18T01:55:54.891Z,13.73
2022-10-18T01:58:46.468Z,12.90
2022-10-18T02:01:37.582Z,12.40
2022-10-18T02:04:29.434Z,12.27
2022-10-18T02:07:23.393Z,12.27
2022-10-18T02:10:12.300Z,12.52
2022-10-18T02:13:00.261Z,12.65
2022-10-18T02:18:36.693Z,12.38
2022-10-18T02:21:24.408Z,11.55
2022-10-18T02:24:14.709Z,11.80
2022-10-18T02:27:01.566Z,11.20
2022-10-18T02:29:48.803Z,11.10
2022-10-18T02:32:36.941Z,11.25
2022-10-18T02:35:27.001Z,11.38
2022-10-18T02:38:14.689Z,10.82
2022-10-18T02:41:03.535Z,12.32
2022-10-18T02:43:50.904Z,13.43
2022-10-18T02:46:38.423Z,12.48
2022-10-18T02:49:25.516Z,13.75
2022-10-18T02:52:12.631Z,12.63
2022-10-18T02:54:59.773Z,11.95
2022-10-18T02:57:48.281Z,10.82
2022-10-18T03:00:35.651Z,10.43
2022-10-18T03:03:22.665Z,10.85
2022-10-18T03:06:09.599Z,10.60
2022-10-18T03:08:56.558Z,10.20
2022-10-18T03:11:43.512Z,9.52
2022-10-18T03:14:32.108Z,9.30
2022-10-18T03:17:18.949Z,8.68
2022-10-18T03:20:06.551Z,8.85
2022-10-18T03:22:53.907Z,8.15
2022-10-18T03:25:42.902Z,8.00
2022-10-18T03:28:33.022Z,7.60
2022-10-18T03:31:21.504Z,8.18
2022-10-18T03:34:08.650Z,7.85
2022-10-18T03:37:01.007Z,7.82
2022-10-18T03:39:50.817Z,7.38
2022-10-18T03:42:37.768Z,8.32
2022-10-18T03:45:28.897Z,8.07
2022-10-18T03:48:19.823Z,7.63
2022-10-18T03:51:07.109Z,6.95
2022-10-18T03:53:56.112Z,7.80
2022-10-18T03:56:43.478Z,6.72
2022-10-18T03:59:30.603Z,6.13
2022-10-18T04:02:17.829Z,6.72
2022-10-18T04:05:07.503Z,6.80
2022-10-18T04:07:54.691Z,6.28
2022-10-18T04:10:41.923Z,5.80
2022-10-18T04:13:28.968Z,5.88
2022-10-18T04:16:16.177Z,6.72
2022-10-18T04:19:03.124Z,6.25
2022-10-18T04:21:52.199Z,6.25
2022-10-18T04:24:39.472Z,7.22
2022-10-18T04:27:26.801Z,7.43
2022-10-18T04:30:14.088Z,6.82
2022-10-18T04:33:03.908Z,7.32
2022-10-18T04:35:53.156Z,7.20
2022-10-18T04:38:42.126Z,7.78
2022-10-18T04:41:29.223Z,7.75
2022-10-18T04:44:16.500Z,8.27
2022-10-18T04:47:03.574Z,9.15
2022-10-18T04:49:50.942Z,7.93
2022-10-18T04:52:37.962Z,7.35
2022-10-18T04:55:26.735Z,7.25
2022-10-18T04:58:14.154Z,7.10
2022-10-18T05:01:01.484Z,7.30
2022-10-18T05:03:48.652Z,8.98
2022-10-18T05:06:35.881Z,9.05
2022-10-18T05:09:24.933Z,7.53
2022-10-18T05:12:13.348Z,6.88
2022-10-18T05:15:00.866Z,7.00
2022-10-18T05:17:48.242Z,7.63
2022-10-18T05:20:35.824Z,8.90
2022-10-18T05:23:23.162Z,7.15
2022-10-18T05:26:10.559Z,6.35
2022-10-18T05:28:59.222Z,8.57
2022-10-18T05:31:46.663Z,7.40
2022-10-18T05:34:33.999Z,6.18
2022-10-18T05:37:26.022Z,8.27
2022-10-18T05:40:15.554Z,8.07
2022-10-18T05:43:02.967Z,6.45
2022-10-18T05:45:52.017Z,7.10
2022-10-18T05:48:39.327Z,8.38
2022-10-18T05:51:26.296Z,8.57
2022-10-18T05:54:14.297Z,8.13
2022-10-18T05:57:01.385Z,8.23
2022-10-18T05:59:48.281Z,7.90
2022-10-18T06:02:36.591Z,7.25
2022-10-18T06:05:23.811Z,7.47
2022-10-18T06:08:10.877Z,6.40
2022-10-18T06:10:58.030Z,6.38
2022-10-18T06:13:46.426Z,6.22
2022-10-18T06:16:33.445Z,5.20
2022-10-18T06:19:22.016Z,5.22
2022-10-18T06:22:09.319Z,5.38
2022-10-18T06:24:57.371Z,5.03
2022-10-18T06:27:47.290Z,5.00
2022-10-18T06:30:34.924Z,4.63
2022-10-18T06:33:22.183Z,4.45
2022-10-18T06:36:12.835Z,5.03
2022-10-18T06:39:00.165Z,4.70
2022-10-18T06:41:47.171Z,3.50
2022-10-18T06:44:40.386Z,3.90
2022-10-18T06:47:27.299Z,3.85
2022-10-18T06:50:14.473Z,3.42
2022-10-18T06:53:04.161Z,2.80
2022-10-18T06:55:51.094Z,2.67
2022-10-18T06:58:38.394Z,3.58
2022-10-18T07:01:25.541Z,3.22
2022-10-18T07:04:12.720Z,3.40
2022-10-18T07:07:00.027Z,3.42
2022-10-18T07:09:49.010Z,2.75
2022-10-18T07:12:36.190Z,3.38
2022-10-18T07:15:24.252Z,3.25
2022-10-18T07:18:11.131Z,3.20
2022-10-18T07:20:58.480Z,3.13
2022-10-18T07:23:47.002Z,2.60
2022-10-18T07:26:36.505Z,2.92
2022-10-18T07:29:23.635Z,2.13
2022-10-18T07:32:10.931Z,2.42
2022-10-18T07:34:58.271Z,1.75
2022-10-18T07:37:48.084Z,2.00
2022-10-18T07:40:35.186Z,1.92
2022-10-18T07:43:23.883Z,2.00
2022-10-18T07:46:11.312Z,1.77
2022-10-18T07:48:59.623Z,1.77
2022-10-18T07:51:46.491Z,1.50
2022-10-18T07:54:33.914Z,1.73
2022-10-18T07:57:21.218Z,1.58
2022-10-18T08:00:10.268Z,1.75
2022-10-18T08:02:58.793Z,1.40
2022-10-18T08:05:45.906Z,1.48
2022-10-18T08:08:32.870Z,2.10
2022-10-18T08:11:20.775Z,1.77
2022-10-18T08:14:07.803Z,1.92
2022-10-18T08:16:57.087Z,2.25
2022-10-18T08:19:52.919Z,1.80
2022-10-18T08:22:53.087Z,1.60
2022-10-18T08:25:43.116Z,1.55
2022-10-18T08:28:30.296Z,1.30
2022-10-18T08:31:17.924Z,1.50
2022-10-18T08:34:06.354Z,1.50
2022-10-18T08:36:53.299Z,1.48
2022-10-18T08:39:40.622Z,1.23
2022-10-18T08:42:37.717Z,1.83
2022-10-18T08:45:37.764Z,1.13
2022-10-18T08:48:37.261Z,1.50
2022-10-18T08:51:30.513Z,1.67
2022-10-18T08:54:20.623Z,1.60
2022-10-18T08:57:14.881Z,1.40
2022-10-18T09:00:03.628Z,1.70
2022-10-18T09:02:58.106Z,1.90
2022-10-18T09:05:50.127Z,1.60
2022-10-18T09:08:48.579Z,1.98
2022-10-18T09:11:42.609Z,2.05
2022-10-18T09:14:45.527Z,1.65
2022-10-18T09:17:37.267Z,1.17
2022-10-18T09:20:25.752Z,1.23
2022-10-18T09:23:17.632Z,1.80
2022-10-18T09:26:10.037Z,1.45
2022-10-18T09:29:02.762Z,1.33
2022-10-18T09:31:52.147Z,1.13
2022-10-18T09:34:40.311Z,1.17
2022-10-18T09:37:29.096Z,0.80
2022-10-18T09:40:19.037Z,1.15
2022-10-18T09:43:11.728Z,0.95
2022-10-18T09:45:58.664Z,1.70
2022-10-18T09:48:48.603Z,1.75
2022-10-18T09:51:36.919Z,1.08
2022-10-18T09:54:27.665Z,1.50
2022-10-18T09:57:18.320Z,2.40
2022-10-18T10:00:09.101Z,1.90
2022-10-18T10:02:55.955Z,2.13
2022-10-18T10:05:46.664Z,1.90
2022-10-18T10:08:34.763Z,2.13
2022-10-18T10:11:32.357Z,1.52
2022-10-18T10:14:24.584Z,1.75
2022-10-18T10:17:24.629Z,2.58
2022-10-18T10:20:17.416Z,2.30
2022-10-18T10:23:09.227Z,2.30
2022-10-18T10:25:57.845Z,2.25
2022-10-18T10:28:48.951Z,1.85
2022-10-18T10:31:37.448Z,2.80
2022-10-18T10:34:30.847Z,2.25
2022-10-18T10:37:36.002Z,2.10
2022-10-18T10:40:28.362Z,2.20
2022-10-18T10:43:39.416Z,2.17
2022-10-18T10:46:34.937Z,1.90
2022-10-18T10:52:31.743Z,2.53
2022-10-18T10:55:34.901Z,1.52
2022-10-18T10:58:23.297Z,1.75
2022-10-18T11:01:21.213Z,1.75
2022-10-18T11:04:22.964Z,1.80
2022-10-18T11:07:15.276Z,2.10
2022-10-18T11:10:07.847Z,1.58
2022-10-18T11:13:02.305Z,1.42
2022-10-18T11:15:51.298Z,1.33
2022-10-18T11:18:40.931Z,1.50
2022-10-18T11:21:29.365Z,1.45
2022-10-18T11:24:17.936Z,1.85
2022-10-18T11:27:12.594Z,1.23
2022-10-18T11:30:08.380Z,1.50
2022-10-18T11:33:01.117Z,1.10
2022-10-18T11:35:51.145Z,1.10
2022-10-18T11:38:41.698Z,1.60
2022-10-18T11:41:39.838Z,1.20
2022-10-18T11:44:32.086Z,1.77
2022-10-18T11:47:20.938Z,1.73
2022-10-18T11:50:13.322Z,1.42
2022-10-18T11:53:06.414Z,1.13
2022-10-18T11:55:58.825Z,1.75
2022-10-18T11:58:52.920Z,1.42
2022-10-18T12:01:44.561Z,1.40
2022-10-18T12:04:38.493Z,1.58
2022-10-18T12:07:32.606Z,1.40
2022-10-18T12:10:31.411Z,1.65
2022-10-18T12:13:31.340Z,1.30
2022-10-18T12:16:33.501Z,1.38
2022-10-18T12:19:29.513Z,1.67
2022-10-18T12:22:20.472Z,1.58
2022-10-18T12:25:12.279Z,1.42
2022-10-18T12:30:49.969Z,1.30
2022-10-18T12:33:39.459Z,1.55
2022-10-18T12:36:38.691Z,1.67
2022-10-18T12:39:37.559Z,2.25
2022-10-18T12:42:32.336Z,2.90
2022-10-18T12:45:26.409Z,1.50
2022-10-18T12:48:27.871Z,1.77
2022-10-18T12:51:16.101Z,1.35
2022-10-18T12:54:13.341Z,1.67
2022-10-18T12:57:01.566Z,1.48
2022-10-18T12:59:48.689Z,1.15
2022-10-18T13:02:36.164Z,1.23
2022-10-18T13:05:53.100Z,1.30
2022-10-18T13:08:42.822Z,1.42
2022-10-18T13:11:35.776Z,1.55
2022-10-18T13:14:48.365Z,1.60
2022-10-18T13:17:49.295Z,1.90
2022-10-18T13:20:42.574Z,1.92
2022-10-18T13:23:38.072Z,1.27
2022-10-18T13:26:31.879Z,1.50
2022-10-18T13:29:30.131Z,1.60
2022-10-18T13:32:24.029Z,1.90
2022-10-18T13:35:26.033Z,2.05
2022-10-18T13:38:28.891Z,1.55
2022-10-18T13:41:17.287Z,1.55
2022-10-18T13:44:12.284Z,1.40
2022-10-18T13:47:20.220Z,1.23
2022-10-18T13:50:21.992Z,1.50
2022-10-18T13:53:27.640Z,1.23
2022-10-18T13:56:19.519Z,1.70
2022-10-18T13:59:17.740Z,1.88
2022-10-18T14:02:36.437Z,1.70
2022-10-18T14:05:39.834Z,1.67
2022-10-18T14:08:31.458Z,1.30
2022-10-18T14:11:24.194Z,1.52
2022-10-18T14:14:16.059Z,1.40
2022-10-18T14:17:13.000Z,1.75
2022-10-18T14:20:05.323Z,1.65
2022-10-18T14:22:55.195Z,2.35
2022-10-18T14:25:50.075Z,2.00
2022-10-18T14:28:55.539Z,1.50
2022-10-18T14:31:58.900Z,1.92
2022-10-18T14:34:58.281Z,1.85
2022-10-18T14:38:02.225Z,1.60
2022-10-18T14:40:52.127Z,1.70
2022-10-18T14:43:42.424Z,2.65
2022-10-18T14:46:31.236Z,2.22
2022-10-18T14:49:20.458Z,2.33
2022-10-18T14:52:13.776Z,1.83
2022-10-18T14:55:05.355Z,1.90
2022-10-18T14:57:55.186Z,1.90
2022-10-18T15:00:45.116Z,1.35
2022-10-18T15:03:37.723Z,1.40
2022-10-18T15:06:24.717Z,1.98
2022-10-18T15:09:13.313Z,1.42
2022-10-18T15:12:00.830Z,1.33
2022-10-18T15:17:36.087Z,2.08
2022-10-18T15:20:25.100Z,1.20
2022-10-18T15:23:23.435Z,1.90
2022-10-18T15:26:14.694Z,1.55
2022-10-18T15:29:04.470Z,1.67
2022-10-18T15:31:54.213Z,1.15
2022-10-18T15:37:35.780Z,3.45
2022-10-18T15:40:37.253Z,2.50
2022-10-18T15:43:51.460Z,2.15
2022-10-18T15:46:41.078Z,2.13
2022-10-18T15:49:46.158Z,1.58
2022-10-18T15:52:39.357Z,1.90
2022-10-18T15:55:45.479Z,2.50
2022-10-18T15:58:39.194Z,2.47
2022-10-18T16:03:42.988Z,6.07
2022-10-18T16:05:57.779Z,14.48
2022-10-18T16:08:51.053Z,12.02
2022-10-18T16:11:38.933Z,8.38
2022-10-18T16:14:27.028Z,6.05
2022-10-18T16:17:19.190Z,4.95
2022-10-18T16:20:08.536Z,3.20
2022-10-18T16:22:55.675Z,3.40
2022-10-18T16:25:44.022Z,2.75
2022-10-18T16:28:31.867Z,2.28
2022-10-18T16:31:20.910Z,3.10
2022-10-18T16:34:10.945Z,2.90
2022-10-18T16:36:58.215Z,3.05
2022-10-18T16:39:45.286Z,2.53
2022-10-18T16:42:34.197Z,2.67
2022-10-18T16:45:21.797Z,2.30
2022-10-18T16:48:08.917Z,1.52
2022-10-18T16:50:56.448Z,1.92
2022-10-18T16:53:44.128Z,2.10
2022-10-18T16:56:33.231Z,1.75
2022-10-18T16:59:23.589Z,2.50
2022-10-18T17:02:11.594Z,2.60
2022-10-18T17:04:58.815Z,2.15
2022-10-18T17:07:46.033Z,2.53
2022-10-18T17:10:33.324Z,2.35
2022-10-18T17:13:21.039Z,2.35
2022-10-18T17:18:57.415Z,1.80
2022-10-18T17:21:44.810Z,1.88
2022-10-18T17:24:32.078Z,2.22
2022-10-18T17:27:19.236Z,2.03
2022-10-18T17:30:06.694Z,1.95
2022-10-18T17:35:44.441Z,2.28
2022-10-18T17:38:31.263Z,3.28
2022-10-18T17:41:18.151Z,2.13
2022-10-18T17:44:08.544Z,2.05
2022-10-18T17:46:55.453Z,2.42
2022-10-18T17:49:44.423Z,2.55
2022-10-18T17:52:33.004Z,2.78
2022-10-18T17:55:20.363Z,2.70
2022-10-18T17:58:07.971Z,2.40
2022-10-18T18:00:55.084Z,3.40
2022-10-18T18:03:42.087Z,2.97
2022-10-18T18:06:31.410Z,3.65
2022-10-18T18:09:21.131Z,3.50
2022-10-18T18:12:08.132Z,3.72
2022-10-18T18:14:58.241Z,4.25
2022-10-18T18:17:56.600Z,3.63
2022-10-18T18:20:53.356Z,3.25
2022-10-18T18:23:42.455Z,3.78
2022-10-18T18:26:32.841Z,2.97
2022-10-18T18:29:20.357Z,2.72
2022-10-18T18:32:08.609Z,3.00
2022-10-18T18:34:55.533Z,2.40
2022-10-18T18:37:42.832Z,2.63
2022-10-18T18:40:29.727Z,2.88
2022-10-18T18:43:23.185Z,3.20
2022-10-18T18:46:11.263Z,3.35
2022-10-18T18:48:59.094Z,3.22
2022-10-18T18:51:46.505Z,2.30
2022-10-18T18:54:33.626Z,2.75
2022-10-18T18:57:20.909Z,2.47
2022-10-18T19:00:10.574Z,2.97
2022-10-18T19:02:57.692Z,2.88
2022-10-18T19:05:44.816Z,2.63
2022-10-18T19:08:32.157Z,2.78
2022-10-18T19:11:20.734Z,2.78
2022-10-18T19:14:08.674Z,3.20
2022-10-18T19:16:58.921Z,3.13
2022-10-18T19:19:46.016Z,3.10
2022-10-18T19:22:33.048Z,3.45
2022-10-18T19:25:22.244Z,2.47
2022-10-18T19:28:12.337Z,3.58
2022-10-18T19:30:59.753Z,2.72
2022-10-18T19:33:58.989Z,2.80
2022-10-18T19:36:47.938Z,2.83
2022-10-18T19:39:35.488Z,2.38
2022-10-18T19:42:26.153Z,2.53
2022-10-18T19:45:14.666Z,2.15
2022-10-18T19:48:01.997Z,2.30
2022-10-18T19:50:50.813Z,2.75
2022-10-18T19:53:38.381Z,2.47
2022-10-18T19:56:26.403Z,2.65
2022-10-18T19:59:14.419Z,2.45
2022-10-18T20:02:01.768Z,2.55
2022-10-18T20:04:48.826Z,2.28
2022-10-18T20:07:37.616Z,2.30
2022-10-18T20:10:25.011Z,2.70
2022-10-18T20:13:12.103Z,2.50
2022-10-18T20:15:59.218Z,2.90
2022-10-18T20:18:49.460Z,2.90
2022-10-18T20:21:37.131Z,3.15
2022-10-18T20:24:27.261Z,2.60
2022-10-18T20:27:14.323Z,3.03
2022-10-18T20:30:07.676Z,3.05
2022-10-18T20:32:58.464Z,2.88
2022-10-18T20:35:49.999Z,3.10
2022-10-18T20:38:40.322Z,3.53
2022-10-18T20:41:30.404Z,2.72
2022-10-18T20:44:19.588Z,3.25
2022-10-18T20:47:06.776Z,3.10
2022-10-18T20:49:54.210Z,3.50
2022-10-18T20:52:41.269Z,2.88
2022-10-18T20:55:30.435Z,3.53
2022-10-18T20:58:18.780Z,3.30
2022-10-18T21:01:06.634Z,3.72
2022-10-18T21:03:55.271Z,3.13
2022-10-18T21:06:43.265Z,3.33
2022-10-18T21:09:31.164Z,2.95
2022-10-18T21:12:18.086Z,3.28
2022-10-18T21:15:06.983Z,3.60
2022-10-18T21:17:54.223Z,2.90
2022-10-18T21:20:41.482Z,3.13
2022-10-18T21:23:28.508Z,3.55
2022-10-18T21:26:16.668Z,3.40
2022-10-18T21:29:03.751Z,2.70
2022-10-18T21:31:54.300Z,3.30
2022-10-18T21:34:41.523Z,3.08
2022-10-18T21:37:28.607Z,3.58
2022-10-18T21:40:15.634Z,2.97
2022-10-18T21:43:02.772Z,3.00
2022-10-18T21:45:49.849Z,3.05
2022-10-18T21:48:39.030Z,2.58
2022-10-18T21:51:26.752Z,3.05
2022-10-18T21:54:14.721Z,3.25
2022-10-18T21:59:48.841Z,2.70
2022-10-18T22:02:35.892Z,2.70
2022-10-18T22:05:26.172Z,2.83
2022-10-18T22:08:13.659Z,2.97
2022-10-18T22:11:01.261Z,2.20
2022-10-18T22:13:48.270Z,2.85
2022-10-18T22:16:35.567Z,2.92
2022-10-18T22:19:23.028Z,2.45
2022-10-18T22:22:11.831Z,2.78
2022-10-18T22:24:58.672Z,3.42
2022-10-18T22:27:45.872Z,2.90
2022-10-18T22:30:32.951Z,2.42
2022-10-18T22:33:20.273Z,2.25
2022-10-18T22:36:07.642Z,3.20
2022-10-18T22:38:56.283Z,2.42
2022-10-18T22:41:43.330Z,2.22
2022-10-18T22:44:30.089Z,2.23
2022-10-18T22:47:17.338Z,2.45
2022-10-18T22:50:04.430Z,2.58
2022-10-18T22:52:53.950Z,2.95
2022-10-18T22:55:43.609Z,2.80
2022-10-18T22:58:30.381Z,2.55
2022-10-18T23:01:18.986Z,2.85
2022-10-18T23:04:05.875Z,2.40
2022-10-18T23:06:55.962Z,2.55
2022-10-18T23:09:43.269Z,2.42
2022-10-18T23:12:31.800Z,2.53
2022-10-18T23:15:19.390Z,2.97
2022-10-18T23:18:06.954Z,2.80
2022-10-18T23:21:01.739Z,2.67
2022-10-18T23:23:49.179Z,2.90
2022-10-18T23:26:36.022Z,2.75
2022-10-18T23:29:24.691Z,2.97
2022-10-18T23:32:11.551Z,2.40
2022-10-18T23:34:58.749Z,2.20
2022-10-18T23:37:47.483Z,2.30
2022-10-18T23:40:34.780Z,2.13
2022-10-18T23:43:21.970Z,2.15
2022-10-18T23:46:11.013Z,2.53
2022-10-18T23:48:58.126Z,1.95
2022-10-18T23:51:45.335Z,1.67
2022-10-18T23:54:32.329Z,1.92
2022-10-18T23:57:19.275Z,2.13
